Other Surface Observations
Issued by NWS Great Falls, MT

Home | Current Version | Previous Version | Text Only | Print | Product List | Glossary On
Versions: 1 2 3 4 5 6 7 8 9 10 11 12 13 14 15 16 17 18 19 20 21 22 23 24 25 26 27 28 29 30 31 32 33 34 35 36 37 38 39 40 41 42 43 44 45 46 47 48 49 50
000
SXUS55 KTFX 202106
OSOTFX
AREA AWOS OBSERVATIONS
NATIONAL WEATHER SERVICE GREAT FALLS MT
0205 PM MST SAT DEC 20 2014

METAR KPWD 202100Z AUTO 23007KT 7SM 02/01 A2974 RMK PLENTYWOOD
METAR KPO1 202100Z AUTO 24010KT 10SM 06/M02 A2978 RMK POPLAR
METAR K1S3 202100Z AUTO 27003KT 10SM 08/M04 A2984 RMK FORSYTH
METAR KS71 202100Z AUTO 00000KT 10SM 03/M04 A2976 RMK CHINOOK
METAR K38S 202100Z AUTO 18008KT 10SM 03/M03 A2985 RMK DEER LODGE
METAR K3U3 202100Z AUTO 18011G18KT 10SM 03/M05 A2982 RMK ANACONDA
METAR K6S5 202100Z AUTO 01005KT 10SM 01/M02 A2982 RMK HAMILTON
METAR KS59 202100Z AUTO 00000KT 4SM 00/00 RMK LIBBY
METAR K88M 202100Z AUTO 14008KT 10SM 04/M02 A2978 RMK EUREKA



USA.gov is the U.S. government's official web portal to all federal, state and local government web resources and services.